Portada
METAR-TAF:

METAR-TAF

Aeropuertos :

Base aérea

Solenzara, Francia

latitud: 41-55N, longitud: 009-24E, altitud: 8 m

Observación

El informe se hizo hace 22 minutos, a las 02:30 UTC
Viento 6 kt del oeste
Temperatura 15°C
Humedad 77%
Presión 1016 hPa
Visibilidad 10 km o más
sin nubes por debajo de 1500 m y sin presencia de cumulonimbus.

METAR: LFKS 010230Z AUTO 28006KT CAVOK 15/11 Q1016

Hora: 04:52 (02:52 UTC)

Pronóstico

El informe se hizo hace 8 horas y 22 minutos, a las 18:30 UTC
Pronóstico válido del 31 a las 18 UTC al 01 a las 15 UTC
Viento 5 kt del oeste
Visibilidad 10 km o más
sin nubes por debajo de 1500 m y sin presencia de cumulonimbus.
Evolucionando progresivamente
del 01 a las 06 UTC al 01 a las 08 UTC
Viento 10 kt del sureste

TAF: LFKS 311830Z 3118/0115 27005KT CAVOK BECMG 0106/0108 14010KT

Observaciones y pronósticos meteorológicos de más de 4000 aeropuertos (mensajes METAR y TAF).

Los puntos amarillos y rojos representan las estaciones disponibles.

Ponga el ratón en el punto deseado para ver el nombre de la estación.

Haga clic para ver las observaciones y los pronósticos meteorológicos.

Para cambiar el mapa : haga clic en los botones verdes con una cruz de color negro para hacer un zoom, en el botón verde con un guión para alejar o en las flechas verdes para mapas adyacentes.


METAR-TAF: